sensor_id;sensor_type;location;lat;lon;timestamp;pressure;altitude;pressure_sealevel;temperature;humidity
5812;BME280;2932;52.400;9.558;2024-01-15T00:02:05;99111.94;;;4.81;79.24
5812;BME280;2932;52.400;9.558;2024-01-15T00:04:35;99115.13;;;4.83;79.63
5812;BME280;2932;52.400;9.558;2024-01-15T00:07:01;99108.78;;;4.67;79.71
5812;BME280;2932;52.400;9.558;2024-01-15T00:09:26;99109.28;;;4.85;79.55
5812;BME280;2932;52.400;9.558;2024-01-15T00:11:52;99100.66;;;4.58;79.61
5812;BME280;2932;52.400;9.558;2024-01-15T00:14:18;99101.28;;;4.92;79.08
5812;BME280;2932;52.400;9.558;2024-01-15T00:16:45;99090.41;;;4.55;79.32
5812;BME280;2932;52.400;9.558;2024-01-15T00:19:10;99099.88;;;4.70;79.54
5812;BME280;2932;52.400;9.558;2024-01-15T00:21:36;99090.38;;;4.80;79.26
5812;BME280;2932;52.400;9.558;2024-01-15T00:24:01;99091.88;;;4.77;79.36
5812;BME280;2932;52.400;9.558;2024-01-15T00:26:26;99098.94;;;4.78;79.06
5812;BME280;2932;52.400;9.558;2024-01-15T00:28:52;99094.31;;;5.07;78.91
5812;BME280;2932;52.400;9.558;2024-01-15T00:31:17;99088.88;;;4.82;78.44
5812;BME280;2932;52.400;9.558;2024-01-15T00:33:43;99076.69;;;5.20;78.20
5812;BME280;2932;52.400;9.558;2024-01-15T00:36:08;99061.00;;;4.92;77.66
5812;BME280;2932;52.400;9.558;2024-01-15T00:38:34;99057.09;;;4.93;78.20
5812;BME280;2932;52.400;9.558;2024-01-15T00:40:59;99047.91;;;5.14;77.45
5812;BME280;2932;52.400;9.558;2024-01-15T00:43:24;99062.09;;;4.51;78.31
5812;BME280;2932;52.400;9.558;2024-01-15T00:45:49;99062.78;;;4.60;78.85
5812;BME280;2932;52.400;9.558;2024-01-15T00:48:15;99060.59;;;4.66;79.05
5812;BME280;2932;52.400;9.558;2024-01-15T00:50:40;99073.69;;;4.85;79.00
5812;BME280;2932;52.400;9.558;2024-01-15T00:53:05;99044.72;;;4.72;78.62
5812;BME280;2932;52.400;9.558;2024-01-15T00:55:31;99059.81;;;4.65;78.31
5812;BME280;2932;52.400;9.558;2024-01-15T00:57:56;99042.22;;;4.79;78.42
5812;BME280;2932;52.400;9.558;2024-01-15T01:00:22;99036.41;;;4.56;78.84
5812;BME280;2932;52.400;9.558;2024-01-15T01:02:47;99036.56;;;4.87;78.85
5812;BME280;2932;52.400;9.558;2024-01-15T01:05:12;99025.22;;;4.61;78.03
5812;BME280;2932;52.400;9.558;2024-01-15T01:07:38;99032.44;;;4.53;79.06
5812;BME280;2932;52.400;9.558;2024-01-15T01:10:06;99050.69;;;4.49;78.77
5812;BME280;2932;52.400;9.558;2024-01-15T01:12:32;99042.59;;;4.41;78.72
5812;BME280;2932;52.400;9.558;2024-01-15T01:14:57;99044.19;;;4.54;78.21
5812;BME280;2932;52.400;9.558;2024-01-15T01:17:24;99048.41;;;4.63;77.91
5812;BME280;2932;52.400;9.558;2024-01-15T01:19:50;99043.38;;;4.53;77.68
5812;BME280;2932;52.400;9.558;2024-01-15T01:22:15;99018.06;;;4.56;77.38
5812;BME280;2932;52.400;9.558;2024-01-15T01:24:40;99030.03;;;4.52;77.24
5812;BME280;2932;52.400;9.558;2024-01-15T01:27:06;99025.59;;;4.47;77.09
5812;BME280;2932;52.400;9.558;2024-01-15T01:29:31;99020.56;;;4.61;77.46
5812;BME280;2932;52.400;9.558;2024-01-15T01:31:56;99014.94;;;4.70;76.96
5812;BME280;2932;52.400;9.558;2024-01-15T01:34:22;99021.94;;;4.43;76.83
5812;BME280;2932;52.400;9.558;2024-01-15T01:36:47;99013.84;;;4.47;77.15
5812;BME280;2932;52.400;9.558;2024-01-15T01:39:12;99014.28;;;4.61;77.30
5812;BME280;2932;52.400;9.558;2024-01-15T01:41:38;99025.03;;;4.42;76.98
5812;BME280;2932;52.400;9.558;2024-01-15T01:44:04;99001.41;;;4.49;76.85
5812;BME280;2932;52.400;9.558;2024-01-15T01:46:31;99010.88;;;4.92;76.36
5812;BME280;2932;52.400;9.558;2024-01-15T01:48:56;99005.59;;;4.59;75.96
5812;BME280;2932;52.400;9.558;2024-01-15T01:51:23;99000.69;;;4.64;75.75
5812;BME280;2932;52.400;9.558;2024-01-15T01:53:50;98996.72;;;4.50;76.13
5812;BME280;2932;52.400;9.558;2024-01-15T01:56:16;99003.59;;;4.84;75.67
5812;BME280;2932;52.400;9.558;2024-01-15T01:58:43;99003.00;;;4.90;75.12
5812;BME280;2932;52.400;9.558;2024-01-15T02:01:09;99016.94;;;4.85;75.04
5812;BME280;2932;52.400;9.558;2024-01-15T02:03:35;98995.16;;;5.17;74.44
5812;BME280;2932;52.400;9.558;2024-01-15T02:06:00;98980.69;;;5.04;74.30
5812;BME280;2932;52.400;9.558;2024-01-15T02:08:26;99000.16;;;4.87;74.61
5812;BME280;2932;52.400;9.558;2024-01-15T02:10:51;98997.88;;;4.89;74.85
5812;BME280;2932;52.400;9.558;2024-01-15T02:13:17;98986.28;;;5.08;74.63
5812;BME280;2932;52.400;9.558;2024-01-15T02:15:43;99001.50;;;4.93;74.88
5812;BME280;2932;52.400;9.558;2024-01-15T02:18:08;98994.56;;;5.39;73.97
5812;BME280;2932;52.400;9.558;2024-01-15T02:20:34;98992.00;;;5.02;74.25
5812;BME280;2932;52.400;9.558;2024-01-15T02:23:12;98992.78;;;5.03;74.10
5812;BME280;2932;52.400;9.558;2024-01-15T02:25:43;98997.03;;;4.73;74.45
5812;BME280;2932;52.400;9.558;2024-01-15T02:28:11;98998.91;;;4.84;74.28
5812;BME280;2932;52.400;9.558;2024-01-15T02:30:37;98985.16;;;4.96;73.68
5812;BME280;2932;52.400;9.558;2024-01-15T02:33:04;98975.94;;;5.17;73.37
5812;BME280;2932;52.400;9.558;2024-01-15T02:35:29;98989.47;;;5.25;73.18
5812;BME280;2932;52.400;9.558;2024-01-15T02:37:55;98992.66;;;5.55;72.72
5812;BME280;2932;52.400;9.558;2024-01-15T02:40:20;98992.06;;;5.34;73.10
5812;BME280;2932;52.400;9.558;2024-01-15T02:42:45;98985.88;;;5.37;72.62
5812;BME280;2932;52.400;9.558;2024-01-15T02:45:11;98988.69;;;5.25;72.47
5812;BME280;2932;52.400;9.558;2024-01-15T02:47:36;98993.47;;;5.28;72.39
5812;BME280;2932;52.400;9.558;2024-01-15T02:50:01;98983.38;;;5.16;72.51
5812;BME280;2932;52.400;9.558;2024-01-15T02:52:27;98986.47;;;5.30;72.68
5812;BME280;2932;52.400;9.558;2024-01-15T02:54:52;98975.81;;;5.41;72.47
5812;BME280;2932;52.400;9.558;2024-01-15T02:57:17;98978.91;;;5.40;72.10
5812;BME280;2932;52.400;9.558;2024-01-15T02:59:43;98971.41;;;5.09;72.60
5812;BME280;2932;52.400;9.558;2024-01-15T03:02:08;98970.44;;;4.73;73.44
5812;BME280;2932;52.400;9.558;2024-01-15T03:04:33;98989.31;;;5.18;73.23
5812;BME280;2932;52.400;9.558;2024-01-15T03:06:58;98983.13;;;4.93;73.32
5812;BME280;2932;52.400;9.558;2024-01-15T03:09:24;98968.53;;;4.89;73.30
5812;BME280;2932;52.400;9.558;2024-01-15T03:11:49;98978.28;;;5.02;73.14
5812;BME280;2932;52.400;9.558;2024-01-15T03:14:14;98973.00;;;4.82;73.55
5812;BME280;2932;52.400;9.558;2024-01-15T03:16:40;98980.47;;;4.97;73.58
5812;BME280;2932;52.400;9.558;2024-01-15T03:19:05;98984.97;;;4.89;73.85
5812;BME280;2932;52.400;9.558;2024-01-15T03:21:30;98991.53;;;4.73;74.48
5812;BME280;2932;52.400;9.558;2024-01-15T03:23:56;98969.09;;;4.55;74.76
5812;BME280;2932;52.400;9.558;2024-01-15T03:26:21;98978.47;;;4.54;75.13
5812;BME280;2932;52.400;9.558;2024-01-15T03:28:46;98984.38;;;4.56;74.75
5812;BME280;2932;52.400;9.558;2024-01-15T03:31:11;98965.91;;;4.81;74.97
5812;BME280;2932;52.400;9.558;2024-01-15T03:33:37;98968.78;;;5.28;73.92
5812;BME280;2932;52.400;9.558;2024-01-15T03:36:02;98981.28;;;4.69;74.23
5812;BME280;2932;52.400;9.558;2024-01-15T03:38:28;98976.69;;;4.74;74.40
5812;BME280;2932;52.400;9.558;2024-01-15T03:40:54;99003.56;;;4.44;75.16
5812;BME280;2932;52.400;9.558;2024-01-15T03:43:19;98975.31;;;4.80;74.29
5812;BME280;2932;52.400;9.558;2024-01-15T03:45:44;98993.25;;;4.77;74.46
5812;BME280;2932;52.400;9.558;2024-01-15T03:48:11;98991.38;;;4.81;74.48
5812;BME280;2932;52.400;9.558;2024-01-15T03:50:36;98997.72;;;4.97;74.20
5812;BME280;2932;52.400;9.558;2024-01-15T03:53:01;98989.25;;;5.02;73.85
5812;BME280;2932;52.400;9.558;2024-01-15T03:55:27;98983.78;;;5.02;73.15
5812;BME280;2932;52.400;9.558;2024-01-15T03:57:52;98997.31;;;4.83;73.23
5812;BME280;2932;52.400;9.558;2024-01-15T04:00:17;98993.28;;;5.21;73.27
5812;BME280;2932;52.400;9.558;2024-01-15T04:02:43;98973.59;;;5.03;73.47
5812;BME280;2932;52.400;9.558;2024-01-15T04:05:09;98998.63;;;5.01;73.05
5812;BME280;2932;52.400;9.558;2024-01-15T04:07:35;98977.72;;;5.25;72.93
5812;BME280;2932;52.400;9.558;2024-01-15T04:10:00;98988.06;;;5.16;72.72
5812;BME280;2932;52.400;9.558;2024-01-15T04:12:25;98974.34;;;5.16;72.83
5812;BME280;2932;52.400;9.558;2024-01-15T04:14:51;98964.53;;;5.30;73.24
5812;BME280;2932;52.400;9.558;2024-01-15T04:17:16;98985.66;;;5.14;73.41
5812;BME280;2932;52.400;9.558;2024-01-15T04:19:43;98985.00;;;5.33;72.97
5812;BME280;2932;52.400;9.558;2024-01-15T04:22:09;98987.06;;;5.08;73.29
5812;BME280;2932;52.400;9.558;2024-01-15T04:24:34;98981.06;;;4.90;73.78
5812;BME280;2932;52.400;9.558;2024-01-15T04:27:00;98981.47;;;5.05;73.88
5812;BME280;2932;52.400;9.558;2024-01-15T04:29:26;98981.72;;;4.99;73.84
5812;BME280;2932;52.400;9.558;2024-01-15T04:31:52;98982.22;;;4.89;74.15
5812;BME280;2932;52.400;9.558;2024-01-15T04:34:17;98979.53;;;5.05;74.00
5812;BME280;2932;52.400;9.558;2024-01-15T04:36:43;98986.47;;;5.15;73.83
5812;BME280;2932;52.400;9.558;2024-01-15T04:39:08;98979.66;;;5.24;73.73
5812;BME280;2932;52.400;9.558;2024-01-15T04:41:34;98981.94;;;5.22;73.76
5812;BME280;2932;52.400;9.558;2024-01-15T04:43:59;98987.09;;;5.24;73.10
5812;BME280;2932;52.400;9.558;2024-01-15T04:46:26;98977.19;;;5.19;73.69
5812;BME280;2932;52.400;9.558;2024-01-15T04:48:52;98979.38;;;5.14;73.87
5812;BME280;2932;52.400;9.558;2024-01-15T04:51:17;98986.38;;;5.27;73.81
5812;BME280;2932;52.400;9.558;2024-01-15T04:53:42;98994.78;;;5.18;73.22
5812;BME280;2932;52.400;9.558;2024-01-15T04:56:08;98989.31;;;5.34;73.41
5812;BME280;2932;52.400;9.558;2024-01-15T04:58:33;98974.47;;;5.35;73.57
5812;BME280;2932;52.400;9.558;2024-01-15T05:00:58;98971.16;;;5.14;74.03
5812;BME280;2932;52.400;9.558;2024-01-15T05:03:24;98975.69;;;4.94;74.30
5812;BME280;2932;52.400;9.558;2024-01-15T05:05:49;98969.31;;;5.18;74.30
5812;BME280;2932;52.400;9.558;2024-01-15T05:08:14;98966.78;;;4.97;74.43
5812;BME280;2932;52.400;9.558;2024-01-15T05:10:40;98956.47;;;5.06;74.60
5812;BME280;2932;52.400;9.558;2024-01-15T05:13:05;98976.94;;;4.96;74.73
5812;BME280;2932;52.400;9.558;2024-01-15T05:15:30;98968.38;;;4.70;75.17
5812;BME280;2932;52.400;9.558;2024-01-15T05:17:55;98970.44;;;4.73;75.50
5812;BME280;2932;52.400;9.558;2024-01-15T05:20:21;98955.97;;;4.88;75.74
5812;BME280;2932;52.400;9.558;2024-01-15T05:22:47;98955.28;;;4.91;75.34
5812;BME280;2932;52.400;9.558;2024-01-15T05:25:12;98960.66;;;4.48;75.98
5812;BME280;2932;52.400;9.558;2024-01-15T05:27:37;98952.59;;;4.79;75.88
5812;BME280;2932;52.400;9.558;2024-01-15T05:30:03;98962.31;;;4.77;76.02
5812;BME280;2932;52.400;9.558;2024-01-15T05:32:29;98964.25;;;4.76;75.74
5812;BME280;2932;52.400;9.558;2024-01-15T05:34:54;98955.06;;;4.84;75.86
5812;BME280;2932;52.400;9.558;2024-01-15T05:37:19;98965.56;;;4.82;75.30
5812;BME280;2932;52.400;9.558;2024-01-15T05:39:45;98965.06;;;4.77;75.18
5812;BME280;2932;52.400;9.558;2024-01-15T05:42:10;98958.41;;;5.06;75.07
5812;BME280;2932;52.400;9.558;2024-01-15T05:44:35;98953.56;;;4.87;75.25
5812;BME280;2932;52.400;9.558;2024-01-15T05:47:01;98950.22;;;4.78;75.25
5812;BME280;2932;52.400;9.558;2024-01-15T05:49:26;98951.94;;;4.98;75.09
5812;BME280;2932;52.400;9.558;2024-01-15T05:51:51;98964.34;;;4.80;75.58
5812;BME280;2932;52.400;9.558;2024-01-15T05:54:18;98953.56;;;4.59;76.09
5812;BME280;2932;52.400;9.558;2024-01-15T05:56:43;98956.47;;;4.78;76.50
5812;BME280;2932;52.400;9.558;2024-01-15T05:59:09;98959.47;;;4.73;76.78
5812;BME280;2932;52.400;9.558;2024-01-15T06:01:34;98960.06;;;4.94;76.53
5812;BME280;2932;52.400;9.558;2024-01-15T06:03:59;98954.94;;;4.65;76.87
5812;BME280;2932;52.400;9.558;2024-01-15T06:06:25;98962.31;;;5.20;76.54
5812;BME280;2932;52.400;9.558;2024-01-15T06:08:50;98965.56;;;4.82;76.65
5812;BME280;2932;52.400;9.558;2024-01-15T06:11:15;98949.91;;;4.67;77.22
5812;BME280;2932;52.400;9.558;2024-01-15T06:13:41;98946.41;;;4.42;77.93
5812;BME280;2932;52.400;9.558;2024-01-15T06:16:16;98949.06;;;4.79;77.85
5812;BME280;2932;52.400;9.558;2024-01-15T06:18:41;98946.84;;;4.84;77.44
5812;BME280;2932;52.400;9.558;2024-01-15T06:21:07;98958.69;;;4.60;77.57
5812;BME280;2932;52.400;9.558;2024-01-15T06:23:32;98959.25;;;4.94;76.84
5812;BME280;2932;52.400;9.558;2024-01-15T06:25:57;98956.28;;;4.71;76.73
5812;BME280;2932;52.400;9.558;2024-01-15T06:28:23;98955.41;;;4.83;76.73
5812;BME280;2932;52.400;9.558;2024-01-15T06:30:48;98955.50;;;4.86;76.46
5812;BME280;2932;52.400;9.558;2024-01-15T06:33:13;98963.34;;;5.00;75.86
5812;BME280;2932;52.400;9.558;2024-01-15T06:35:39;98961.66;;;4.95;75.66
5812;BME280;2932;52.400;9.558;2024-01-15T06:38:04;98946.81;;;4.96;75.86
5812;BME280;2932;52.400;9.558;2024-01-15T06:40:29;98955.81;;;4.97;75.37
5812;BME280;2932;52.400;9.558;2024-01-15T06:42:54;98962.38;;;4.80;75.67
5812;BME280;2932;52.400;9.558;2024-01-15T06:45:20;98970.22;;;4.94;75.55
5812;BME280;2932;52.400;9.558;2024-01-15T06:47:45;98963.03;;;5.17;75.38
5812;BME280;2932;52.400;9.558;2024-01-15T06:50:10;98958.34;;;5.18;74.88
5812;BME280;2932;52.400;9.558;2024-01-15T06:52:39;98954.81;;;5.17;74.78
5812;BME280;2932;52.400;9.558;2024-01-15T06:55:05;98960.75;;;5.19;74.40
5812;BME280;2932;52.400;9.558;2024-01-15T06:57:31;98959.94;;;4.91;74.66
5812;BME280;2932;52.400;9.558;2024-01-15T06:59:56;98973.84;;;4.98;74.38
5812;BME280;2932;52.400;9.558;2024-01-15T07:02:21;98967.56;;;4.97;75.77
5812;BME280;2932;52.400;9.558;2024-01-15T07:04:47;98955.34;;;5.23;74.98
5812;BME280;2932;52.400;9.558;2024-01-15T07:07:12;98967.28;;;5.15;74.93
5812;BME280;2932;52.400;9.558;2024-01-15T07:09:37;98986.03;;;5.13;75.60
5812;BME280;2932;52.400;9.558;2024-01-15T07:12:03;98986.28;;;4.80;76.20
5812;BME280;2932;52.400;9.558;2024-01-15T07:14:28;98990.66;;;4.96;76.52
5812;BME280;2932;52.400;9.558;2024-01-15T07:16:54;98986.63;;;4.78;77.06
5812;BME280;2932;52.400;9.558;2024-01-15T07:19:19;98978.44;;;4.94;76.82
5812;BME280;2932;52.400;9.558;2024-01-15T07:21:44;98993.84;;;4.98;76.49
5812;BME280;2932;52.400;9.558;2024-01-15T07:24:10;98994.31;;;4.88;76.81
5812;BME280;2932;52.400;9.558;2024-01-15T07:26:35;98985.56;;;4.83;76.97
5812;BME280;2932;52.400;9.558;2024-01-15T07:29:01;98994.72;;;4.75;77.37
5812;BME280;2932;52.400;9.558;2024-01-15T07:31:27;98984.25;;;4.92;76.96
5812;BME280;2932;52.400;9.558;2024-01-15T07:33:52;98999.56;;;4.93;77.08
5812;BME280;2932;52.400;9.558;2024-01-15T07:36:17;98995.56;;;4.91;76.55
5812;BME280;2932;52.400;9.558;2024-01-15T07:38:43;98992.22;;;4.69;77.36
5812;BME280;2932;52.400;9.558;2024-01-15T07:41:08;98991.25;;;5.18;77.22
5812;BME280;2932;52.400;9.558;2024-01-15T07:43:33;98994.09;;;4.93;76.81
5812;BME280;2932;52.400;9.558;2024-01-15T07:45:58;98993.16;;;5.01;77.69
5812;BME280;2932;52.400;9.558;2024-01-15T07:48:24;98991.44;;;4.69;77.92
5812;BME280;2932;52.400;9.558;2024-01-15T07:50:49;99003.25;;;4.85;78.14
5812;BME280;2932;52.400;9.558;2024-01-15T07:53:15;98996.81;;;4.65;78.39
5812;BME280;2932;52.400;9.558;2024-01-15T07:55:40;99002.78;;;4.43;79.11
5812;BME280;2932;52.400;9.558;2024-01-15T07:58:06;99011.38;;;4.29;79.53
5812;BME280;2932;52.400;9.558;2024-01-15T08:00:31;99015.13;;;4.37;79.67
5812;BME280;2932;52.400;9.558;2024-01-15T08:02:56;99005.50;;;4.43;80.11
5812;BME280;2932;52.400;9.558;2024-01-15T08:05:21;99012.03;;;4.39;79.89
5812;BME280;2932;52.400;9.558;2024-01-15T08:07:47;99003.31;;;4.73;79.55
5812;BME280;2932;52.400;9.558;2024-01-15T08:10:13;99005.84;;;4.54;79.40
5812;BME280;2932;52.400;9.558;2024-01-15T08:12:39;98999.69;;;4.57;79.33
5812;BME280;2932;52.400;9.558;2024-01-15T08:15:04;99006.66;;;4.82;78.91
5812;BME280;2932;52.400;9.558;2024-01-15T08:17:30;98998.72;;;5.05;78.22
5812;BME280;2932;52.400;9.558;2024-01-15T08:19:57;99009.44;;;4.30;79.02
5812;BME280;2932;52.400;9.558;2024-01-15T08:22:22;99001.84;;;4.91;78.28
5812;BME280;2932;52.400;9.558;2024-01-15T08:24:48;98994.22;;;4.45;78.30
5812;BME280;2932;52.400;9.558;2024-01-15T08:27:13;98990.66;;;4.56;78.04
5812;BME280;2932;52.400;9.558;2024-01-15T08:29:38;98988.00;;;4.72;77.50
5812;BME280;2932;52.400;9.558;2024-01-15T08:32:04;98994.88;;;4.54;77.59
5812;BME280;2932;52.400;9.558;2024-01-15T08:34:29;98999.69;;;4.57;77.12
5812;BME280;2932;52.400;9.558;2024-01-15T08:36:55;99005.16;;;4.45;77.56
5812;BME280;2932;52.400;9.558;2024-01-15T08:39:20;98997.63;;;4.54;77.61
5812;BME280;2932;52.400;9.558;2024-01-15T08:41:45;99008.59;;;4.94;77.22
5812;BME280;2932;52.400;9.558;2024-01-15T08:44:12;98998.00;;;4.80;76.78
5812;BME280;2932;52.400;9.558;2024-01-15T08:46:37;99007.13;;;4.84;76.94
5812;BME280;2932;52.400;9.558;2024-01-15T08:49:03;99002.34;;;4.81;76.76
5812;BME280;2932;52.400;9.558;2024-01-15T08:51:28;98994.44;;;5.20;76.31
5812;BME280;2932;52.400;9.558;2024-01-15T08:53:53;98996.38;;;4.91;76.64
5812;BME280;2932;52.400;9.558;2024-01-15T08:56:19;98989.69;;;5.05;76.29
5812;BME280;2932;52.400;9.558;2024-01-15T08:58:44;99010.25;;;4.71;76.29
5812;BME280;2932;52.400;9.558;2024-01-15T09:01:11;99003.00;;;4.90;75.80
5812;BME280;2932;52.400;9.558;2024-01-15T09:03:36;99002.97;;;5.02;75.92
5812;BME280;2932;52.400;9.558;2024-01-15T09:06:02;98995.56;;;4.63;75.88
5812;BME280;2932;52.400;9.558;2024-01-15T09:08:28;99008.72;;;4.85;75.67
5812;BME280;2932;52.400;9.558;2024-01-15T09:10:53;99000.47;;;4.97;75.34
5812;BME280;2932;52.400;9.558;2024-01-15T09:13:18;99023.63;;;4.60;75.23
5812;BME280;2932;52.400;9.558;2024-01-15T09:15:44;99020.34;;;4.94;75.37
5812;BME280;2932;52.400;9.558;2024-01-15T09:18:09;99005.59;;;4.99;74.81
5812;BME280;2932;52.400;9.558;2024-01-15T09:20:35;99000.78;;;5.24;74.62
5812;BME280;2932;52.400;9.558;2024-01-15T09:23:00;99008.94;;;4.92;74.34
5812;BME280;2932;52.400;9.558;2024-01-15T09:25:26;99018.13;;;5.12;74.08
5812;BME280;2932;52.400;9.558;2024-01-15T09:27:51;99016.53;;;5.27;74.15
5812;BME280;2932;52.400;9.558;2024-01-15T09:30:17;99015.41;;;5.28;73.87
5812;BME280;2932;52.400;9.558;2024-01-15T09:32:42;99017.53;;;5.19;74.25
5812;BME280;2932;52.400;9.558;2024-01-15T09:35:08;99013.59;;;5.63;74.00
5812;BME280;2932;52.400;9.558;2024-01-15T09:37:33;99025.75;;;5.19;73.70
5812;BME280;2932;52.400;9.558;2024-01-15T09:39:59;99019.22;;;5.39;73.95
5812;BME280;2932;52.400;9.558;2024-01-15T09:42:24;99015.75;;;5.26;73.83
5812;BME280;2932;52.400;9.558;2024-01-15T09:44:51;99013.50;;;5.44;73.82
5812;BME280;2932;52.400;9.558;2024-01-15T09:47:17;99023.72;;;5.31;74.70
5812;BME280;2932;52.400;9.558;2024-01-15T09:49:43;99032.50;;;5.09;74.95
5812;BME280;2932;52.400;9.558;2024-01-15T09:52:10;99026.13;;;5.33;74.69
5812;BME280;2932;52.400;9.558;2024-01-15T09:54:36;99049.41;;;5.11;75.10
5812;BME280;2932;52.400;9.558;2024-01-15T09:57:03;99040.19;;;5.03;75.30
5812;BME280;2932;52.400;9.558;2024-01-15T09:59:29;99048.22;;;4.84;76.23
5812;BME280;2932;52.400;9.558;2024-01-15T10:01:55;99032.09;;;4.55;77.06
5812;BME280;2932;52.400;9.558;2024-01-15T10:04:21;99056.22;;;4.89;77.16
5812;BME280;2932;52.400;9.558;2024-01-15T10:06:47;99051.38;;;4.46;77.78
5812;BME280;2932;52.400;9.558;2024-01-15T10:09:15;99044.16;;;4.66;77.97
5812;BME280;2932;52.400;9.558;2024-01-15T10:11:41;99037.13;;;4.93;77.68
5812;BME280;2932;52.400;9.558;2024-01-15T10:14:08;99050.22;;;4.72;77.70
5812;BME280;2932;52.400;9.558;2024-01-15T10:16:33;99037.91;;;5.06;77.50
5812;BME280;2932;52.400;9.558;2024-01-15T10:18:59;99040.19;;;5.03;77.66
5812;BME280;2932;52.400;9.558;2024-01-15T10:21:24;99043.22;;;5.14;77.33
5812;BME280;2932;52.400;9.558;2024-01-15T10:23:51;99031.66;;;5.49;76.49
5812;BME280;2932;52.400;9.558;2024-01-15T10:26:17;99032.16;;;5.11;76.37
5812;BME280;2932;52.400;9.558;2024-01-15T10:28:42;99021.34;;;5.30;76.19
5812;BME280;2932;52.400;9.558;2024-01-15T10:31:07;99016.94;;;5.41;76.09
5812;BME280;2932;52.400;9.558;2024-01-15T10:33:33;99010.59;;;5.68;75.19
5812;BME280;2932;52.400;9.558;2024-01-15T10:36:00;99010.94;;;5.51;74.45
5812;BME280;2932;52.400;9.558;2024-01-15T10:38:26;99021.53;;;5.37;74.39
5812;BME280;2932;52.400;9.558;2024-01-15T10:40:54;99012.22;;;5.26;74.59
5812;BME280;2932;52.400;9.558;2024-01-15T10:43:20;99005.28;;;5.44;74.28
5812;BME280;2932;52.400;9.558;2024-01-15T10:45:51;99019.53;;;5.65;74.40
5812;BME280;2932;52.400;9.558;2024-01-15T10:48:17;99027.06;;;5.68;73.21
5812;BME280;2932;52.400;9.558;2024-01-15T10:50:44;99040.94;;;5.44;73.25
5812;BME280;2932;52.400;9.558;2024-01-15T10:53:11;99022.00;;;5.55;73.00
5812;BME280;2932;52.400;9.558;2024-01-15T10:55:37;99020.22;;;5.90;72.63
5812;BME280;2932;52.400;9.558;2024-01-15T10:58:03;99019.34;;;5.43;72.85
5812;BME280;2932;52.400;9.558;2024-01-15T11:00:29;99012.16;;;5.38;73.21
5812;BME280;2932;52.400;9.558;2024-01-15T11:02:56;99007.94;;;5.72;72.53
5812;BME280;2932;52.400;9.558;2024-01-15T11:05:22;98998.66;;;6.08;71.91
5812;BME280;2932;52.400;9.558;2024-01-15T11:07:48;99005.94;;;6.00;70.79
5812;BME280;2932;52.400;9.558;2024-01-15T11:13:14;98993.34;;;6.15;69.77
5812;BME280;2932;52.400;9.558;2024-01-15T11:15:56;98995.38;;;6.18;70.19
5812;BME280;2932;52.400;9.558;2024-01-15T11:18:22;99004.28;;;5.96;70.35
5812;BME280;2932;52.400;9.558;2024-01-15T11:26:45;98993.22;;;5.92;70.55
5812;BME280;2932;52.400;9.558;2024-01-15T11:32:04;98984.81;;;6.36;69.85
5812;BME280;2932;52.400;9.558;2024-01-15T11:34:50;98984.75;;;6.32;69.62
5812;BME280;2932;52.400;9.558;2024-01-15T11:37:15;99012.84;;;6.10;69.46
5812;BME280;2932;52.400;9.558;2024-01-15T11:39:42;98977.69;;;5.68;70.67
5812;BME280;2932;52.400;9.558;2024-01-15T11:42:10;98990.25;;;5.54;70.31
5812;BME280;2932;52.400;9.558;2024-01-15T11:44:36;98991.50;;;5.88;71.09
5812;BME280;2932;52.400;9.558;2024-01-15T11:47:04;98990.13;;;5.94;70.98
5812;BME280;2932;52.400;9.558;2024-01-15T11:50:03;98993.69;;;5.82;70.87
5812;BME280;2932;52.400;9.558;2024-01-15T11:52:43;98991.47;;;6.35;70.08
5812;BME280;2932;52.400;9.558;2024-01-15T11:55:16;98976.75;;;6.62;69.40
5812;BME280;2932;52.400;9.558;2024-01-15T11:57:49;98996.91;;;6.51;68.95
5812;BME280;2932;52.400;9.558;2024-01-15T12:00:16;98988.56;;;6.28;68.81
5812;BME280;2932;52.400;9.558;2024-01-15T12:02:43;98990.59;;;6.15;68.87
5812;BME280;2932;52.400;9.558;2024-01-15T12:05:09;98984.91;;;6.59;68.47
5812;BME280;2932;52.400;9.558;2024-01-15T12:07:41;98983.94;;;6.32;67.99
5812;BME280;2932;52.400;9.558;2024-01-15T12:10:17;98978.63;;;6.39;68.08
5812;BME280;2932;52.400;9.558;2024-01-15T12:13:14;98982.25;;;6.27;68.00
5812;BME280;2932;52.400;9.558;2024-01-15T12:15:41;98978.47;;;6.51;67.86
5812;BME280;2932;52.400;9.558;2024-01-15T12:18:08;98988.22;;;6.49;67.90
5812;BME280;2932;52.400;9.558;2024-01-15T12:20:33;98984.47;;;6.57;68.38
5812;BME280;2932;52.400;9.558;2024-01-15T12:23:00;98990.66;;;6.34;67.79
5812;BME280;2932;52.400;9.558;2024-01-15T12:25:26;98992.00;;;6.25;67.48
5812;BME280;2932;52.400;9.558;2024-01-15T12:27:55;98994.84;;;6.28;67.73
5812;BME280;2932;52.400;9.558;2024-01-15T12:30:23;98986.00;;;6.19;67.57
5812;BME280;2932;52.400;9.558;2024-01-15T12:32:48;98992.09;;;6.13;67.73
5812;BME280;2932;52.400;9.558;2024-01-15T12:35:25;98996.44;;;6.29;67.64
5812;BME280;2932;52.400;9.558;2024-01-15T12:37:55;98989.97;;;6.38;67.76
5812;BME280;2932;52.400;9.558;2024-01-15T12:40:26;98994.44;;;5.95;68.39
5812;BME280;2932;52.400;9.558;2024-01-15T12:42:54;98977.09;;;5.91;68.13
5812;BME280;2932;52.400;9.558;2024-01-15T12:45:29;98999.47;;;6.09;68.20
5812;BME280;2932;52.400;9.558;2024-01-15T12:48:00;98987.25;;;5.75;68.30
5812;BME280;2932;52.400;9.558;2024-01-15T12:50:33;99001.47;;;5.49;68.81
5812;BME280;2932;52.400;9.558;2024-01-15T12:53:10;98995.34;;;5.99;69.03
5812;BME280;2932;52.400;9.558;2024-01-15T12:55:35;98998.47;;;5.69;68.59
5812;BME280;2932;52.400;9.558;2024-01-15T12:58:04;98990.16;;;5.82;69.03
5812;BME280;2932;52.400;9.558;2024-01-15T13:00:42;98993.63;;;5.79;68.91
5812;BME280;2932;52.400;9.558;2024-01-15T13:03:08;99000.50;;;5.73;69.32
5812;BME280;2932;52.400;9.558;2024-01-15T13:05:33;98996.78;;;5.65;69.31
5812;BME280;2932;52.400;9.558;2024-01-15T13:08:05;98993.53;;;5.75;69.14
5812;BME280;2932;52.400;9.558;2024-01-15T13:10:31;99005.69;;;5.30;69.72
5812;BME280;2932;52.400;9.558;2024-01-15T13:12:59;98999.09;;;5.79;69.43
5812;BME280;2932;52.400;9.558;2024-01-15T13:15:25;98982.59;;;5.91;69.25
5812;BME280;2932;52.400;9.558;2024-01-15T13:17:50;98991.31;;;5.49;68.93
5812;BME280;2932;52.400;9.558;2024-01-15T13:20:15;99004.25;;;5.80;68.73
5812;BME280;2932;52.400;9.558;2024-01-15T13:22:41;99003.97;;;5.69;68.47
5812;BME280;2932;52.400;9.558;2024-01-15T13:25:08;99001.13;;;5.66;69.14
5812;BME280;2932;52.400;9.558;2024-01-15T13:27:34;98994.47;;;5.67;69.37
5812;BME280;2932;52.400;9.558;2024-01-15T13:30:03;99007.66;;;5.46;70.59
5812;BME280;2932;52.400;9.558;2024-01-15T13:32:29;99012.28;;;5.14;71.75
5812;BME280;2932;52.400;9.558;2024-01-15T13:34:56;99005.91;;;5.10;72.84
5812;BME280;2932;52.400;9.558;2024-01-15T13:37:21;98999.19;;;5.51;72.53
5812;BME280;2932;52.400;9.558;2024-01-15T13:39:49;99004.31;;;5.52;72.76